Time;durP1;ratioP1;P1;durP2;ratioP2;P2;SDS_P1;SDS_P2;PMS_P1;PMS_P2;Temp;Humidity;BMP_temperature;BMP_pressure;BME280_temperature;BME280_humidity;BME280_pressure;Samples;Min_cycle;Max_cycle;Signal;HPM_P1;HPM_P2
2022/07/08 00:00:37;;;;;;;4.43;3.27;;;20.10;99.90;;;;;;5053049;28;20213;-69
2022/07/08 00:03:04;;;;;;;5.00;3.73;;;20.10;99.90;;;;;;5045089;28;20614;-72
2022/07/08 00:05:31;;;;;;;3.80;2.90;;;20.00;99.90;;;;;;5033358;28;20629;-71
2022/07/08 00:07:59;;;;;;;10.90;3.73;;;20.00;99.90;;;;;;5032762;28;20301;-71
2022/07/08 00:10:27;;;;;;;4.80;3.43;;;20.00;99.90;;;;;;5032799;28;20211;-71
2022/07/08 00:12:54;;;;;;;6.40;3.77;;;19.90;99.90;;;;;;5035604;28;20248;-73
2022/07/08 00:15:21;;;;;;;5.53;3.37;;;19.70;99.90;;;;;;5052700;28;20236;-71
2022/07/08 00:17:48;;;;;;;3.80;3.40;;;19.70;99.90;;;;;;5052924;28;20221;-71
2022/07/08 00:20:15;;;;;;;7.47;4.67;;;19.70;99.90;;;;;;5052420;28;21035;-72
2022/07/08 00:22:42;;;;;;;11.37;8.00;;;19.70;99.90;;;;;;5032659;28;20579;-71
2022/07/08 00:25:10;;;;;;;11.07;8.47;;;19.50;99.90;;;;;;5031720;28;20210;-72
2022/07/08 00:27:37;;;;;;;15.83;11.67;;;19.20;99.90;;;;;;5032445;28;20297;-71
2022/07/08 00:30:05;;;;;;;15.23;10.90;;;19.10;99.90;;;;;;5032357;28;20315;-71
2022/07/08 00:32:32;;;;;;;12.50;9.57;;;19.00;99.90;;;;;;5032750;28;20295;-70
2022/07/08 00:34:58;;;;;;;12.93;9.57;;;19.00;99.90;;;;;;5032316;28;20333;-69
2022/07/08 00:37:25;;;;;;;9.83;8.07;;;18.90;99.90;;;;;;5043501;28;20343;-70
2022/07/08 00:39:52;;;;;;;9.70;7.40;;;18.80;99.90;;;;;;5045697;28;20208;-69
2022/07/08 00:42:21;;;;;;;10.43;7.77;;;18.70;99.90;;;;;;5032519;28;20210;-70
2022/07/08 00:44:48;;;;;;;9.53;7.80;;;18.60;99.90;;;;;;5043675;28;20209;-72
2022/07/08 00:47:14;;;;;;;11.57;7.93;;;18.60;99.90;;;;;;5052405;28;20203;-69
2022/07/08 00:49:42;;;;;;;9.37;7.97;;;18.50;99.90;;;;;;5052112;28;20213;-70
2022/07/08 00:52:10;;;;;;;10.97;7.67;;;18.50;99.90;;;;;;5051734;28;20687;-70
2022/07/08 00:54:37;;;;;;;11.50;7.60;;;18.50;99.90;;;;;;5050411;28;20271;-70
2022/07/08 00:57:05;;;;;;;8.13;6.70;;;18.50;99.90;;;;;;5050862;28;20228;-70
2022/07/08 00:59:33;;;;;;;9.60;6.73;;;18.50;99.90;;;;;;5052042;28;20295;-70
2022/07/08 01:02:01;;;;;;;7.90;6.40;;;18.50;99.90;;;;;;5052088;28;20241;-71
2022/07/08 01:04:27;;;;;;;6.43;5.73;;;18.50;99.90;;;;;;5043037;28;20208;-71
2022/07/08 01:06:54;;;;;;;11.00;6.83;;;18.50;99.90;;;;;;5031969;28;20343;-70
2022/07/08 01:09:21;;;;;;;7.03;5.83;;;18.50;99.90;;;;;;5031766;28;20738;-70
2022/07/08 01:11:49;;;;;;;9.40;5.97;;;18.40;99.90;;;;;;5031067;28;20211;-69
2022/07/08 01:14:16;;;;;;;8.83;5.57;;;18.40;99.90;;;;;;5043702;28;20314;-72
2022/07/08 01:16:45;;;;;;;5.93;5.20;;;18.40;99.90;;;;;;5051268;28;20241;-69
2022/07/08 01:19:12;;;;;;;6.47;5.17;;;18.50;99.90;;;;;;5051375;28;20237;-69
2022/07/08 01:21:40;;;;;;;6.70;5.03;;;18.50;99.90;;;;;;5051897;28;20201;-69
2022/07/08 01:24:07;;;;;;;7.90;5.10;;;18.50;99.90;;;;;;5031592;28;20298;-70
2022/07/08 01:26:34;;;;;;;5.93;5.03;;;18.50;99.90;;;;;;5032044;28;20733;-70
2022/07/08 01:29:01;;;;;;;7.43;5.10;;;18.50;99.90;;;;;;5031766;28;20316;-69
2022/07/08 01:31:28;;;;;;;9.57;5.30;;;18.60;99.90;;;;;;5031852;28;20729;-70
2022/07/08 01:33:55;;;;;;;9.13;5.90;;;18.70;99.90;;;;;;5047484;28;20672;-71
2022/07/08 01:36:22;;;;;;;8.30;5.60;;;18.70;99.90;;;;;;5051681;28;20666;-69
2022/07/08 01:38:50;;;;;;;7.17;5.83;;;18.60;99.90;;;;;;5051821;28;20294;-70
2022/07/08 01:41:17;;;;;;;6.97;5.50;;;18.60;99.90;;;;;;5051308;28;20204;-71
2022/07/08 01:43:44;;;;;;;5.70;3.80;;;18.60;99.90;;;;;;5035821;28;20551;-69
2022/07/08 01:46:11;;;;;;;6.83;4.13;;;18.60;99.90;;;;;;5031276;28;20204;-70
2022/07/08 01:48:38;;;;;;;7.33;4.37;;;18.60;99.90;;;;;;5031125;28;20242;-70
2022/07/08 01:51:05;;;;;;;6.13;4.10;;;18.70;99.90;;;;;;5031267;28;20211;-70
2022/07/08 01:53:32;;;;;;;7.10;4.40;;;18.70;99.90;;;;;;5042604;28;20284;-70
2022/07/08 01:56:01;;;;;;;7.37;4.10;;;18.70;99.90;;;;;;5051202;28;20236;-70
2022/07/08 01:58:27;;;;;;;6.03;3.63;;;18.70;99.90;;;;;;5051263;28;20208;-69
2022/07/08 02:00:54;;;;;;;5.33;3.80;;;18.70;99.90;;;;;;5050802;28;20245;-70
2022/07/08 02:03:21;;;;;;;6.13;3.47;;;18.70;99.90;;;;;;5039221;28;20290;-71
2022/07/08 02:05:48;;;;;;;6.67;3.37;;;18.70;99.90;;;;;;5031002;28;20298;-71
2022/07/08 02:08:15;;;;;;;3.93;3.30;;;18.70;99.90;;;;;;5031714;28;20634;-70
2022/07/08 02:13:28;;;;;;;4.37;2.87;;;18.60;99.90;;;;;;5041655;28;20201;-70
2022/07/08 02:15:54;;;;;;;4.63;2.70;;;18.60;99.90;;;;;;5031116;28;20364;-70
2022/07/08 02:18:21;;;;;;;3.67;2.47;;;18.50;99.90;;;;;;5031439;28;20298;-69
2022/07/08 02:20:48;;;;;;;3.63;2.40;;;18.50;99.90;;;;;;5033775;28;20251;-69
2022/07/08 02:23:15;;;;;;;2.90;2.30;;;18.50;99.90;;;;;;5042695;28;20241;-69
2022/07/08 02:25:42;;;;;;;4.47;2.27;;;18.50;99.90;;;;;;5034944;28;20205;-68
2022/07/08 02:28:09;;;;;;;3.97;2.13;;;18.40;99.90;;;;;;5034701;28;20206;-70
2022/07/08 02:30:37;;;;;;;3.43;2.20;;;18.40;99.90;;;;;;5037379;28;20308;-69
2022/07/08 02:33:04;;;;;;;2.27;2.07;;;18.40;99.90;;;;;;5034579;28;20281;-69
2022/07/08 02:35:31;;;;;;;3.07;2.10;;;18.40;99.90;;;;;;5035179;28;20208;-69
2022/07/08 02:37:58;;;;;;;4.13;2.50;;;18.40;99.90;;;;;;5034921;28;20300;-69
2022/07/08 02:40:25;;;;;;;3.53;2.30;;;18.50;99.90;;;;;;5034618;28;20314;-69
2022/07/08 02:42:52;;;;;;;3.50;2.13;;;18.50;99.90;;;;;;5033613;28;20254;-71
2022/07/08 02:45:19;;;;;;;2.37;1.97;;;18.50;99.90;;;;;;5034898;28;20209;-69
2022/07/08 02:47:47;;;;;;;2.23;1.90;;;18.50;99.90;;;;;;5034395;28;20659;-69
2022/07/08 02:50:14;;;;;;;3.00;2.00;;;18.50;99.90;;;;;;5034770;28;20292;-68
2022/07/08 02:52:41;;;;;;;2.70;2.00;;;18.50;99.90;;;;;;5034434;28;20214;-69
2022/07/08 02:55:08;;;;;;;3.57;2.07;;;18.50;99.90;;;;;;5035440;28;20294;-70
2022/07/08 02:57:35;;;;;;;2.17;1.80;;;18.50;99.90;;;;;;5054701;28;20267;-70
2022/07/08 03:00:02;;;;;;;3.23;2.03;;;18.50;99.90;;;;;;5053925;28;20312;-70
2022/07/08 03:02:30;;;;;;;2.10;1.90;;;18.50;99.90;;;;;;5053290;28;20213;-68
2022/07/08 03:04:59;;;;;;;4.60;2.50;;;18.50;99.90;;;;;;5053894;28;20201;-70
2022/07/08 03:07:25;;;;;;;3.27;2.20;;;18.50;99.90;;;;;;5054151;28;20203;-72
2022/07/08 03:09:52;;;;;;;2.50;2.30;;;18.60;99.90;;;;;;5053682;28;20305;-70
2022/07/08 03:12:19;;;;;;;2.67;2.40;;;18.60;99.90;;;;;;5039331;28;20664;-70
2022/07/08 03:14:46;;;;;;;3.30;2.30;;;18.60;99.90;;;;;;5034096;28;20688;-69
2022/07/08 03:17:13;;;;;;;2.50;2.20;;;18.60;99.90;;;;;;5034664;28;20687;-71
2022/07/08 03:19:40;;;;;;;3.17;2.20;;;18.60;99.90;;;;;;5033018;28;20234;-68
2022/07/08 03:22:08;;;;;;;3.33;2.30;;;18.60;99.90;;;;;;5034128;28;20309;-69
2022/07/08 03:24:35;;;;;;;2.30;2.10;;;18.60;99.90;;;;;;5033981;28;20277;-70
2022/07/08 03:27:02;;;;;;;3.40;2.10;;;18.60;99.90;;;;;;5033881;28;20710;-70
2022/07/08 03:29:29;;;;;;;3.30;1.90;;;18.50;99.90;;;;;;5033554;28;20632;-69
2022/07/08 03:31:57;;;;;;;3.03;1.80;;;18.50;99.90;;;;;;5033534;28;20222;-69
2022/07/08 03:34:24;;;;;;;4.90;3.80;;;18.50;99.90;;;;;;5032844;28;20423;-70
2022/07/08 03:36:50;;;;;;;2.33;2.10;;;18.50;99.90;;;;;;5054103;28;20293;-70
2022/07/08 03:39:19;;;;;;;2.63;2.07;;;18.50;99.90;;;;;;5061417;28;20232;-71
2022/07/08 03:41:45;;;;;;;2.20;2.00;;;18.50;99.90;;;;;;5073068;28;20364;-69
2022/07/08 03:44:12;;;;;;;3.80;2.20;;;18.50;99.90;;;;;;5053500;28;20208;-68
2022/07/08 03:46:38;;;;;;;2.80;2.00;;;18.60;99.90;;;;;;5032959;28;20220;-69
2022/07/08 03:49:05;;;;;;;2.27;1.87;;;18.60;99.90;;;;;;5033526;28;20298;-68
2022/07/08 03:51:32;;;;;;;2.30;2.10;;;18.60;99.90;;;;;;5033217;28;20216;-69
2022/07/08 03:53:59;;;;;;;2.57;1.90;;;18.60;99.90;;;;;;5033236;28;20205;-69
2022/07/08 03:56:27;;;;;;;4.20;2.50;;;18.60;99.90;;;;;;5033124;28;20304;-70
2022/07/08 03:58:54;;;;;;;4.37;2.57;;;18.60;99.90;;;;;;5051576;28;20275;-69
2022/07/08 04:01:21;;;;;;;2.67;2.47;;;18.60;99.90;;;;;;5053113;28;20297;-69
2022/07/08 04:03:48;;;;;;;5.23;3.57;;;18.60;99.90;;;;;;5053380;28;20636;-68
2022/07/08 04:06:15;;;;;;;3.63;2.80;;;18.70;99.90;;;;;;5053165;28;20299;-70
2022/07/08 04:08:43;;;;;;;5.53;3.37;;;18.60;99.90;;;;;;5052490;28;20741;-69
2022/07/08 04:11:10;;;;;;;3.37;2.37;;;18.70;99.90;;;;;;5052788;28;20202;-70
2022/07/08 04:13:39;;;;;;;3.67;2.20;;;18.70;99.90;;;;;;5051510;28;20237;-70
2022/07/08 04:16:10;;;;;;;4.10;2.23;;;18.80;99.90;;;;;;5053096;28;20320;-72
2022/07/08 04:18:38;;;;;;;3.87;3.00;;;18.80;99.90;;;;;;5052589;28;20636;-72
2022/07/08 04:21:05;;;;;;;4.60;1.97;;;18.80;99.90;;;;;;5050129;28;20213;-68
2022/07/08 04:23:32;;;;;;;8.27;4.73;;;18.80;99.90;;;;;;5052576;28;20332;-70
2022/07/08 04:25:59;;;;;;;4.10;2.30;;;18.70;99.90;;;;;;5053229;28;20613;-69
2022/07/08 04:28:26;;;;;;;3.10;2.07;;;18.80;99.90;;;;;;5052870;28;20312;-69
2022/07/08 04:30:55;;;;;;;3.80;2.00;;;18.80;99.90;;;;;;5035969;28;20210;-67
2022/07/08 04:33:22;;;;;;;3.23;1.93;;;18.80;99.90;;;;;;5032868;28;20765;-72
2022/07/08 04:35:49;;;;;;;2.60;2.20;;;18.80;99.90;;;;;;5032287;28;20222;-71
2022/07/08 04:38:16;;;;;;;4.13;2.60;;;18.90;99.90;;;;;;5032846;28;20238;-69
2022/07/08 04:40:43;;;;;;;5.23;2.60;;;19.00;99.90;;;;;;5032306;28;20293;-74
2022/07/08 04:43:12;;;;;;;4.43;2.90;;;19.00;99.90;;;;;;5033010;28;20255;-71
2022/07/08 04:45:39;;;;;;;3.27;2.20;;;19.10;99.90;;;;;;5034380;28;20202;-71
2022/07/08 04:48:07;;;;;;;2.93;2.40;;;19.10;99.90;;;;;;5048859;28;20747;-72
2022/07/08 04:50:34;;;;;;;5.70;2.53;;;19.10;99.90;;;;;;5070077;28;20292;-72
2022/07/08 04:53:01;;;;;;;3.57;2.60;;;19.20;99.90;;;;;;5032160;28;20226;-71
2022/07/08 04:55:31;;;;;;;3.87;3.20;;;19.20;99.90;;;;;;5032267;28;20275;-73
2022/07/08 04:57:59;;;;;;;3.90;2.77;;;19.20;99.90;;;;;;5046183;28;20197;-73
2022/07/08 05:00:27;;;;;;;3.70;2.70;;;19.10;99.90;;;;;;5072011;28;20232;-73
2022/07/08 05:02:54;;;;;;;3.33;2.80;;;19.20;99.90;;;;;;5065677;28;20238;-71
2022/07/08 05:05:23;;;;;;;3.33;2.60;;;19.10;99.90;;;;;;5061132;28;20232;-67
2022/07/08 05:07:51;;;;;;;3.17;2.50;;;19.20;99.90;;;;;;5058922;28;20288;-69
2022/07/08 05:10:21;;;;;;;2.90;2.43;;;19.20;99.90;;;;;;5061189;28;20210;-70
2022/07/08 05:12:49;;;;;;;3.47;2.43;;;19.20;99.90;;;;;;5060659;28;20201;-69
2022/07/08 05:15:16;;;;;;;8.17;2.87;;;19.20;99.90;;;;;;5052930;28;20275;-72
2022/07/08 05:17:43;;;;;;;4.97;2.93;;;19.30;99.90;;;;;;5060903;28;20223;-68
2022/07/08 05:20:11;;;;;;;4.13;3.00;;;19.30;99.90;;;;;;5060757;28;20198;-69
2022/07/08 05:22:40;;;;;;;2.90;2.60;;;19.40;99.90;;;;;;5064667;28;20281;-69
2022/07/08 05:25:08;;;;;;;4.43;3.27;;;19.50;99.90;;;;;;5060241;28;20292;-68
2022/07/08 05:27:35;;;;;;;4.93;3.10;;;19.50;99.90;;;;;;5058864;28;20210;-69
2022/07/08 05:30:03;;;;;;;5.33;3.37;;;19.60;99.90;;;;;;5059781;28;20205;-68
2022/07/08 05:32:30;;;;;;;4.17;3.50;;;19.70;99.90;;;;;;5060999;28;20292;-68
2022/07/08 05:34:57;;;;;;;4.97;3.20;;;19.80;99.90;;;;;;5058997;28;20452;-67
2022/07/08 05:37:24;;;;;;;6.07;3.70;;;19.80;99.90;;;;;;5060797;28;20204;-70
2022/07/08 05:39:52;;;;;;;6.03;3.40;;;19.90;99.90;;;;;;5053689;28;20197;-68
2022/07/08 05:42:19;;;;;;;6.43;4.00;;;20.00;99.90;;;;;;5048757;28;20678;-68
2022/07/08 05:44:46;;;;;;;8.10;5.27;;;20.00;99.90;;;;;;5053685;28;20203;-70
2022/07/08 05:47:13;;;;;;;5.87;3.73;;;20.00;99.90;;;;;;5061071;28;20291;-69
2022/07/08 05:49:43;;;;;;;4.37;3.40;;;20.00;99.90;;;;;;5071110;28;20203;-70
2022/07/08 05:52:10;;;;;;;6.83;4.33;;;20.10;99.90;;;;;;5061864;28;20276;-68
2022/07/08 05:54:38;;;;;;;4.37;3.30;;;20.10;99.90;;;;;;5056727;28;20205;-69
2022/07/08 05:57:06;;;;;;;6.40;3.47;;;20.10;99.90;;;;;;5065649;28;20294;-68
2022/07/08 05:59:33;;;;;;;3.90;3.40;;;20.10;99.90;;;;;;5057988;28;20204;-72
2022/07/08 06:02:00;;;;;;;4.00;2.87;;;20.10;99.90;;;;;;5039652;28;20217;-68
2022/07/08 06:04:27;;;;;;;6.00;3.77;;;20.10;99.90;;;;;;5035594;28;20312;-68
2022/07/08 06:06:54;;;;;;;3.43;3.10;;;20.20;99.90;;;;;;5038108;28;20251;-69
2022/07/08 06:09:21;;;;;;;4.70;3.20;;;20.20;99.90;;;;;;5049909;28;20295;-68
2022/07/08 06:11:48;;;;;;;4.00;2.90;;;20.20;99.90;;;;;;5040880;28;20205;-70
2022/07/08 06:14:17;;;;;;;4.40;3.40;;;20.30;99.90;;;;;;5055115;28;20292;-69
2022/07/08 06:16:44;;;;;;;4.47;3.27;;;20.30;99.90;;;;;;5055505;28;20572;-67
2022/07/08 06:19:14;;;;;;;3.63;2.70;;;20.30;99.90;;;;;;5048004;28;20226;-68
2022/07/08 06:21:44;;;;;;;4.30;3.20;;;20.30;99.90;;;;;;5055034;28;20205;-72
2022/07/08 06:24:11;;;;;;;5.37;3.20;;;20.30;99.90;;;;;;5051925;28;20292;-70
2022/07/08 06:26:38;;;;;;;6.27;3.40;;;20.40;99.90;;;;;;5055013;28;20290;-70
2022/07/08 06:29:05;;;;;;;3.93;3.00;;;20.30;99.90;;;;;;5055222;28;20641;-66
2022/07/08 06:31:34;;;;;;;3.97;3.10;;;20.40;99.90;;;;;;5042136;28;20216;-68
2022/07/08 06:34:01;;;;;;;8.37;2.67;;;20.40;99.90;;;;;;5042670;28;20698;-68
2022/07/08 06:36:28;;;;;;;5.90;3.30;;;20.40;99.90;;;;;;5059964;28;20263;-69
2022/07/08 06:38:55;;;;;;;5.10;3.30;;;20.40;99.90;;;;;;5060637;28;20253;-66
2022/07/08 06:41:22;;;;;;;4.40;2.47;;;20.40;99.90;;;;;;5060800;28;20714;-67
2022/07/08 06:43:49;;;;;;;3.97;2.33;;;20.40;99.90;;;;;;5042993;28;20270;-69
2022/07/08 06:46:16;;;;;;;2.80;2.13;;;20.40;99.90;;;;;;5048967;28;20219;-67
2022/07/08 06:48:44;;;;;;;3.57;2.50;;;20.30;99.90;;;;;;5051043;28;20344;-68
2022/07/08 06:51:11;;;;;;;3.47;2.50;;;20.40;99.90;;;;;;5041036;28;20638;-67
2022/07/08 06:56:23;;;;;;;4.30;2.57;;;20.40;99.90;;;;;;5033850;28;20215;-67
2022/07/08 06:58:50;;;;;;;5.30;2.30;;;20.30;99.90;;;;;;5034573;28;20624;-66
2022/07/08 07:01:17;;;;;;;3.40;2.70;;;20.30;99.90;;;;;;5035413;28;20208;-68
2022/07/08 07:03:45;;;;;;;3.27;2.10;;;20.20;99.90;;;;;;5033944;28;20336;-68
2022/07/08 07:06:13;;;;;;;3.93;2.57;;;20.10;99.90;;;;;;5051032;28;20287;-68
2022/07/08 07:08:40;;;;;;;4.83;2.00;;;20.10;99.90;;;;;;5052230;28;20569;-67
2022/07/08 07:11:07;;;;;;;5.97;2.00;;;20.00;99.90;;;;;;5036117;28;20257;-68
2022/07/08 07:13:33;;;;;;;2.60;2.10;;;20.00;99.90;;;;;;5036771;28;20312;-68
2022/07/08 07:16:00;;;;;;;3.07;2.10;;;19.90;99.90;;;;;;5031824;28;20225;-66
2022/07/08 07:18:27;;;;;;;3.97;2.17;;;19.90;99.90;;;;;;5032959;28;20215;-67
2022/07/08 07:20:56;;;;;;;5.33;2.77;;;19.80;99.90;;;;;;5034130;28;20233;-68
2022/07/08 07:23:22;;;;;;;3.20;2.20;;;19.80;99.90;;;;;;5033938;28;20222;-67
2022/07/08 07:25:49;;;;;;;4.30;2.30;;;19.70;99.90;;;;;;5033962;28;20289;-67
2022/07/08 07:28:16;;;;;;;4.47;2.40;;;19.70;99.90;;;;;;5035565;28;20248;-68
2022/07/08 07:30:43;;;;;;;5.90;2.30;;;19.60;99.90;;;;;;5042257;28;20711;-67
2022/07/08 07:33:10;;;;;;;5.33;2.23;;;19.50;99.90;;;;;;5044175;28;20229;-69
2022/07/08 07:35:37;;;;;;;2.57;1.87;;;19.50;99.90;;;;;;5053720;28;20317;-67
2022/07/08 07:38:05;;;;;;;5.27;2.63;;;19.50;99.90;;;;;;5037024;28;20285;-69
2022/07/08 07:40:32;;;;;;;3.67;2.00;;;19.50;99.90;;;;;;5033763;28;20289;-68
2022/07/08 07:42:59;;;;;;;3.47;2.00;;;19.60;99.90;;;;;;5033885;28;20735;-68
2022/07/08 07:45:26;;;;;;;4.67;2.23;;;19.60;99.90;;;;;;5040337;28;20614;-68
2022/07/08 07:47:53;;;;;;;3.57;2.10;;;19.70;99.90;;;;;;5053316;28;20265;-70
2022/07/08 07:50:20;;;;;;;3.73;2.27;;;19.70;99.90;;;;;;5053047;28;20297;-70
2022/07/08 07:52:47;;;;;;;2.93;1.97;;;19.80;99.90;;;;;;5053494;28;20301;-70
2022/07/08 07:55:15;;;;;;;2.40;1.95;;;19.80;99.90;;;;;;5052720;28;20260;-68
2022/07/08 07:57:42;;;;;;;3.73;2.07;;;19.70;99.90;;;;;;5053128;28;20429;-68
2022/07/08 08:00:10;;;;;;;3.63;2.20;;;19.70;99.90;;;;;;5052801;28;20687;-69
2022/07/08 08:02:37;;;;;;;4.33;2.17;;;19.70;99.90;;;;;;5044823;28;20293;-68
2022/07/08 08:05:04;;;;;;;4.23;2.00;;;19.70;99.90;;;;;;5032727;28;20238;-70
2022/07/08 08:07:31;;;;;;;1.97;1.77;;;19.80;99.90;;;;;;5032862;28;20294;-69
2022/07/08 08:09:58;;;;;;;2.50;1.77;;;19.90;99.90;;;;;;5032727;28;20212;-69
2022/07/08 08:12:27;;;;;;;3.30;1.93;;;20.00;99.90;;;;;;5033390;28;20210;-69
2022/07/08 08:14:54;;;;;;;2.03;1.80;;;20.00;99.90;;;;;;5033103;28;20253;-70
2022/07/08 08:17:21;;;;;;;2.97;2.13;;;20.00;99.90;;;;;;5032225;28;20275;-73
2022/07/08 08:19:48;;;;;;;2.97;2.13;;;20.00;99.90;;;;;;5032937;28;20283;-69
2022/07/08 08:22:15;;;;;;;3.53;1.87;;;20.10;99.90;;;;;;5032672;28;20232;-69
2022/07/08 08:24:42;;;;;;;3.30;2.00;;;20.10;99.90;;;;;;5032687;28;20238;-71
2022/07/08 08:27:11;;;;;;;2.87;2.10;;;20.20;99.90;;;;;;5032535;28;20238;-69
2022/07/08 08:29:39;;;;;;;2.57;2.10;;;20.20;99.90;;;;;;5032580;28;20290;-69
2022/07/08 08:32:06;;;;;;;5.13;2.20;;;20.30;99.90;;;;;;5032472;28;20292;-70
2022/07/08 08:34:33;;;;;;;2.63;1.87;;;20.30;99.90;;;;;;5032282;28;20668;-69
2022/07/08 08:37:00;;;;;;;2.83;1.90;;;20.40;99.90;;;;;;5041951;28;20260;-67
2022/07/08 08:39:27;;;;;;;1.90;1.80;;;20.50;99.90;;;;;;5052354;28;20212;-71
2022/07/08 08:41:54;;;;;;;1.90;1.70;;;20.60;99.90;;;;;;5052608;28;20240;-70
2022/07/08 08:44:21;;;;;;;2.13;1.73;;;20.80;99.90;;;;;;5052480;28;20722;-70
2022/07/08 08:46:51;;;;;;;3.60;1.87;;;20.80;99.90;;;;;;5052264;28;20290;-68
2022/07/08 08:49:20;;;;;;;3.67;1.73;;;20.80;99.90;;;;;;5051905;28;20199;-71
2022/07/08 08:51:50;;;;;;;2.73;1.60;;;20.90;99.90;;;;;;5052191;28;20201;-67
2022/07/08 08:54:18;;;;;;;2.37;1.50;;;20.90;99.90;;;;;;5052058;28;20267;-69
2022/07/08 08:56:47;;;;;;;2.57;1.57;;;21.10;99.90;;;;;;5052062;28;20568;-68
2022/07/08 08:59:16;;;;;;;3.33;1.60;;;21.00;99.90;;;;;;5051979;28;20296;-67
2022/07/08 09:01:43;;;;;;;2.80;1.80;;;21.10;99.90;;;;;;5051901;28;20212;-71
2022/07/08 09:04:11;;;;;;;2.23;1.53;;;21.10;99.90;;;;;;5051881;28;20212;-70
2022/07/08 09:06:38;;;;;;;2.80;1.80;;;21.10;99.90;;;;;;5051901;28;20202;-68
2022/07/08 09:09:05;;;;;;;3.77;1.70;;;21.30;99.90;;;;;;5051828;28;20211;-67
2022/07/08 09:11:34;;;;;;;2.00;1.57;;;21.30;99.90;;;;;;5051797;28;20213;-67
2022/07/08 09:14:18;;;;;;;2.57;1.57;;;21.50;99.90;;;;;;5051438;28;20205;-69
2022/07/08 09:17:07;;;;;;;3.63;1.70;;;21.60;99.90;;;;;;5051662;28;20687;-66
2022/07/08 09:19:36;;;;;;;4.93;3.33;;;21.80;99.90;;;;;;5051835;28;20212;-71
2022/07/08 09:22:03;;;;;;;1.80;1.70;;;21.70;99.90;;;;;;5051830;28;20723;-67
2022/07/08 09:24:30;;;;;;;2.47;1.70;;;21.70;99.90;;;;;;5051251;28;20213;-69
2022/07/08 09:26:57;;;;;;;2.00;1.50;;;21.80;99.90;;;;;;5051753;28;20711;-69
2022/07/08 09:29:24;;;;;;;2.27;1.60;;;21.80;99.90;;;;;;5051478;28;20204;-73
2022/07/08 09:31:51;;;;;;;1.43;1.30;;;21.80;99.90;;;;;;5050921;28;20213;-71
2022/07/08 09:34:21;;;;;;;2.30;1.53;;;21.80;99.90;;;;;;5051107;28;20754;-71
2022/07/08 09:36:50;;;;;;;2.20;1.50;;;21.70;99.90;;;;;;5042836;28;20297;-71
2022/07/08 09:39:24;;;;;;;1.53;1.43;;;21.60;99.90;;;;;;5031939;28;20594;-70
2022/07/08 09:41:52;;;;;;;1.50;1.40;;;21.60;99.90;;;;;;5031171;28;20240;-70
2022/07/08 09:44:20;;;;;;;1.57;1.47;;;21.60;99.90;;;;;;5031290;28;20214;-69
2022/07/08 09:46:47;;;;;;;2.93;1.50;;;21.60;99.90;;;;;;5031003;28;20293;-71
2022/07/08 09:49:28;;;;;;;3.13;1.70;;;21.70;99.90;;;;;;5031768;28;20201;-68
2022/07/08 09:51:57;;;;;;;2.67;1.50;;;21.70;99.90;;;;;;5031544;28;20201;-68
2022/07/08 09:54:24;;;;;;;3.53;1.30;;;21.70;99.90;;;;;;5031386;28;20221;-69
2022/07/08 09:57:02;;;;;;;2.43;1.80;;;21.80;99.90;;;;;;5031063;28;20224;-71
2022/07/08 09:59:30;;;;;;;2.17;1.73;;;21.90;99.90;;;;;;5031534;28;20563;-69
2022/07/08 10:01:58;;;;;;;1.70;1.50;;;21.90;99.90;;;;;;5031244;28;20231;-71
2022/07/08 10:04:25;;;;;;;2.80;1.40;;;22.00;99.90;;;;;;5031584;28;20723;-72
2022/07/08 10:06:53;;;;;;;1.40;1.30;;;22.10;99.90;;;;;;5031375;28;20691;-72
2022/07/08 10:09:24;;;;;;;2.93;1.50;;;22.20;99.90;;;;;;5031187;28;20425;-70
2022/07/08 10:11:51;;;;;;;2.93;1.40;;;22.30;99.90;;;;;;5059474;28;20201;-71
2022/07/08 10:14:20;;;;;;;3.57;1.50;;;22.40;99.90;;;;;;5071315;28;20588;-70
2022/07/08 10:16:48;;;;;;;1.60;1.50;;;22.60;99.90;;;;;;5071013;28;20657;-71
2022/07/08 10:19:17;;;;;;;2.97;1.60;;;22.70;99.90;;;;;;5071336;28;20208;-70
2022/07/08 10:21:50;;;;;;;1.67;1.40;;;22.70;99.90;;;;;;5070883;28;20221;-69
2022/07/08 10:24:20;;;;;;;2.00;1.50;;;22.70;99.90;;;;;;5071066;28;20686;-67
2022/07/08 10:26:48;;;;;;;1.30;1.20;;;22.70;99.90;;;;;;5070651;28;20190;-71
2022/07/08 10:29:15;;;;;;;4.20;1.20;;;22.70;99.90;;;;;;5070848;28;20203;-71
2022/07/08 10:31:44;;;;;;;2.07;1.20;;;22.80;99.90;;;;;;5070705;28;20615;-68
2022/07/08 10:34:12;;;;;;;2.03;1.30;;;22.80;99.90;;;;;;5070471;28;20241;-70
2022/07/08 10:36:46;;;;;;;1.77;1.20;;;22.80;99.90;;;;;;5063628;28;20562;-71
2022/07/08 10:39:13;;;;;;;1.73;1.27;;;22.90;99.90;;;;;;5050732;28;20202;-69
2022/07/08 10:41:41;;;;;;;2.20;1.30;;;22.90;99.90;;;;;;5050568;28;20207;-69
2022/07/08 10:44:09;;;;;;;1.83;1.40;;;23.00;99.90;;;;;;5053390;28;20222;-69
2022/07/08 10:46:36;;;;;;;3.47;1.90;;;23.10;99.90;;;;;;5054200;28;20208;-70
2022/07/08 10:49:04;;;;;;;2.13;1.13;;;23.10;99.90;;;;;;5061127;28;20212;-68
2022/07/08 10:51:47;;;;;;;2.50;1.40;;;23.20;99.90;;;;;;5074704;28;20749;-73
2022/07/08 10:54:29;;;;;;;2.40;1.20;;;23.20;99.90;;;;;;5074882;28;20554;-70
2022/07/08 10:56:58;;;;;;;2.37;1.30;;;23.30;99.90;;;;;;5073875;28;20230;-70
2022/07/08 10:59:27;;;;;;;1.60;1.50;;;23.30;99.90;;;;;;5074271;28;20215;-70
2022/07/08 11:01:55;;;;;;;1.90;1.30;;;23.30;99.90;;;;;;5073947;28;20226;-70
2022/07/08 11:04:46;;;;;;;2.47;1.43;;;23.30;99.90;;;;;;5074319;28;20206;-70
2022/07/08 11:07:27;;;;;;;1.80;1.13;;;23.30;99.90;;;;;;5074779;28;20187;-67
2022/07/08 11:09:56;;;;;;;2.33;1.40;;;23.30;99.90;;;;;;5074273;28;20331;-67
2022/07/08 11:12:25;;;;;;;1.77;1.40;;;23.30;99.90;;;;;;5073970;28;20209;-68
2022/07/08 11:14:55;;;;;;;1.47;1.30;;;23.30;99.90;;;;;;5074445;28;20213;-68
2022/07/08 11:17:23;;;;;;;1.93;1.27;;;23.40;99.90;;;;;;5073905;28;20318;-69
2022/07/08 11:19:52;;;;;;;2.87;1.50;;;23.40;99.90;;;;;;5073988;28;20665;-68
2022/07/08 11:22:19;;;;;;;2.17;1.40;;;23.40;99.90;;;;;;5073830;28;20209;-67
2022/07/08 11:24:47;;;;;;;1.70;1.60;;;23.40;99.90;;;;;;5073788;28;20208;-67
2022/07/08 11:27:15;;;;;;;2.23;1.70;;;23.30;99.90;;;;;;5074144;28;20299;-69
2022/07/08 11:29:49;;;;;;;3.57;1.60;;;23.20;99.90;;;;;;5073616;28;20298;-67
2022/07/08 11:32:19;;;;;;;2.40;1.40;;;23.20;99.90;;;;;;5073662;28;20211;-67
2022/07/08 11:34:46;;;;;;;2.57;1.50;;;23.10;99.90;;;;;;5073520;28;20237;-69
2022/07/08 11:37:13;;;;;;;4.07;1.40;;;23.10;99.90;;;;;;5062128;28;20222;-67
2022/07/08 11:39:41;;;;;;;1.90;1.47;;;23.20;99.90;;;;;;5053719;28;20286;-67
2022/07/08 11:42:09;;;;;;;2.33;1.67;;;23.30;99.90;;;;;;5053603;28;20545;-69
2022/07/08 11:44:36;;;;;;;4.27;2.13;;;23.30;99.90;;;;;;5053644;28;20231;-69
2022/07/08 11:47:04;;;;;;;4.47;2.13;;;23.30;99.90;;;;;;5053541;28;20299;-69
2022/07/08 11:49:34;;;;;;;2.33;1.60;;;23.40;99.90;;;;;;5053186;28;20242;-68
2022/07/08 11:52:01;;;;;;;2.47;1.37;;;23.40;99.90;;;;;;5053304;28;20256;-67
2022/07/08 11:54:30;;;;;;;2.57;1.70;;;23.40;99.90;;;;;;5053144;28;20750;-68
2022/07/08 11:56:57;;;;;;;2.43;1.60;;;23.40;99.90;;;;;;5053380;28;20582;-66
2022/07/08 11:59:26;;;;;;;4.00;1.47;;;23.40;99.90;;;;;;5053507;28;20298;-68
2022/07/08 12:01:53;;;;;;;3.03;1.70;;;23.30;99.90;;;;;;5053422;28;20924;-69
2022/07/08 12:04:20;;;;;;;2.97;1.80;;;23.30;99.90;;;;;;5052844;28;20214;-69
2022/07/08 12:06:50;;;;;;;5.17;1.93;;;23.20;99.90;;;;;;5052497;28;20258;-66
2022/07/08 12:09:18;;;;;;;1.60;1.50;;;23.20;99.90;;;;;;5050710;28;20650;-69
2022/07/08 12:11:46;;;;;;;3.03;1.60;;;23.20;99.90;;;;;;5052777;28;20212;-68
2022/07/08 12:14:13;;;;;;;3.20;1.80;;;23.10;99.90;;;;;;5052649;28;20201;-67
2022/07/08 12:16:45;;;;;;;3.10;1.70;;;23.00;99.90;;;;;;5032900;28;20282;-67
2022/07/08 12:19:30;;;;;;;1.60;1.40;;;23.10;99.90;;;;;;5036121;28;20343;-68
2022/07/08 12:22:01;;;;;;;2.53;1.50;;;23.10;99.90;;;;;;5032928;28;20210;-69
2022/07/08 12:24:29;;;;;;;2.10;1.60;;;23.20;99.90;;;;;;5032897;28;20285;-69
2022/07/08 12:26:57;;;;;;;3.20;1.73;;;23.20;99.90;;;;;;5032757;28;20265;-69
2022/07/08 12:29:25;;;;;;;2.47;1.80;;;23.20;99.90;;;;;;5032566;28;20270;-69
2022/07/08 12:31:52;;;;;;;3.90;1.90;;;23.20;99.90;;;;;;5033378;28;20215;-70
2022/07/08 12:34:21;;;;;;;1.70;1.60;;;23.20;99.90;;;;;;5032651;28;20773;-70
2022/07/08 12:36:48;;;;;;;2.30;2.10;;;23.30;99.90;;;;;;5050591;28;20294;-69
2022/07/08 12:39:18;;;;;;;4.50;2.43;;;23.30;99.90;;;;;;5038583;28;20252;-69
2022/07/08 12:41:57;;;;;;;2.93;1.60;;;23.40;99.90;;;;;;5032301;28;20325;-69
2022/07/08 12:44:36;;;;;;;2.70;1.60;;;23.50;99.90;;;;;;5033788;28;20254;-70
2022/07/08 12:47:05;;;;;;;3.07;1.80;;;23.50;99.90;;;;;;5046634;28;20819;-69
2022/07/08 12:49:33;;;;;;;2.10;1.70;;;23.50;99.90;;;;;;5052158;28;20235;-69
2022/07/08 12:52:01;;;;;;;2.17;1.70;;;23.50;99.90;;;;;;5052048;28;20280;-70
2022/07/08 12:54:29;;;;;;;3.60;1.70;;;23.50;99.90;;;;;;5045184;28;20231;-68